Terminal Aerodrome Forecast
Issued by NWS

Home | Current Version | Previous Version | Text Only | Print | Product List | Glossary On
Versions: 1 2 3 4 5 6 7 8 9 10 11 12 13 14 15 16 17 18 19 20 21
632
FTUS41 KPHI 201726
TAFPNE
TAF
KPNE 201726Z 2018/2118 22012KT P6SM SCT008
     FM201900 22012G18KT P6SM SCT250
     FM210100 21007KT 5SM BR SCT015
     FM210300 20006KT 2SM -DZ BR BKN010
     FM210600 21005KT 1/2SM -DZ FG BKN004
     FM211400 22006KT P6SM BKN010=

USA.gov is the U.S. government's official web portal to all federal, state and local government web resources and services.